Time;durP1;ratioP1;P1;durP2;ratioP2;P2;SDS_P1;SDS_P2;PMS_P1;PMS_P2;Temp;Humidity;BMP_temperature;BMP_pressure;BME280_temperature;BME280_humidity;BME280_pressure;Samples;Min_cycle;Max_cycle;Signal;HPM_P1;HPM_P2
2021/03/31 00:00:57;;;;;;;11.80;4.93;;;;;;;7.62;63.79;97672.69;5001320;28;20050;-63
2021/03/31 00:03:22;;;;;;;17.15;5.82;;;;;;;7.55;65.33;97666.13;4997611;28;20052;-62
2021/03/31 00:05:48;;;;;;;9.88;5.22;;;;;;;7.55;65.96;97666.13;5028447;23;20134;-62
2021/03/31 00:08:14;;;;;;;9.75;5.00;;;;;;;7.58;66.30;97660.81;4993300;28;20049;-60
2021/03/31 00:10:48;;;;;;;11.80;5.25;;;;;;;7.50;64.83;97661.63;5016936;28;20046;-61
2021/03/31 00:13:14;;;;;;;9.80;4.97;;;;;;;7.45;65.06;97659.88;5015755;28;20442;-61
2021/03/31 00:15:40;;;;;;;12.57;5.60;;;;;;;7.31;65.18;97667.44;5020241;28;20042;-61
2021/03/31 00:18:10;;;;;;;10.93;4.85;;;;;;;7.28;65.59;97665.34;5016074;28;20040;-63
2021/03/31 00:20:37;;;;;;;9.57;4.45;;;;;;;7.42;65.96;97662.47;5021143;28;20056;-61
2021/03/31 00:23:07;;;;;;;10.20;4.53;;;;;;;7.39;65.74;97657.63;5018298;28;20041;-62
2021/03/31 00:25:33;;;;;;;12.05;4.93;;;;;;;7.33;66.35;97662.47;5020637;28;20132;-62
2021/03/31 00:27:58;;;;;;;11.05;4.70;;;;;;;7.40;65.90;97661.94;5019850;28;20049;-57
2021/03/31 00:30:24;;;;;;;12.57;4.47;;;;;;;7.37;65.33;97652.50;5016107;28;20610;-61
2021/03/31 00:32:50;;;;;;;12.85;4.55;;;;;;;7.26;65.34;97660.22;5013619;28;20394;-60
2021/03/31 00:35:16;;;;;;;11.88;5.43;;;;;;;7.33;65.13;97659.72;5016230;28;20037;-61
2021/03/31 00:37:41;;;;;;;12.93;4.68;;;;;;;7.35;65.41;97651.25;5011817;28;20041;-61
2021/03/31 00:40:10;;;;;;;9.40;4.47;;;;;;;7.28;64.95;97657.97;5014445;28;20050;-60
2021/03/31 00:42:36;;;;;;;9.73;4.25;;;;;;;7.29;65.80;97669.66;5021119;28;20490;-60
2021/03/31 00:45:04;;;;;;;10.02;4.53;;;;;;;7.25;65.03;97663.25;5014969;28;20037;-60
2021/03/31 00:47:29;;;;;;;8.07;4.55;;;;;;;7.25;65.31;97661.31;5019283;28;20693;-59
2021/03/31 00:49:55;;;;;;;14.70;6.25;;;;;;;7.11;65.11;97657.94;5022226;28;20048;-61
2021/03/31 00:52:20;;;;;;;8.80;4.72;;;;;;;6.84;66.28;97667.22;5016279;28;20042;-60
2021/03/31 00:54:46;;;;;;;7.28;4.18;;;;;;;6.88;66.40;97658.13;5021809;28;20042;-62
2021/03/31 00:57:11;;;;;;;8.32;4.63;;;;;;;6.89;66.14;97658.91;5013843;28;20044;-61
2021/03/31 00:59:36;;;;;;;11.65;5.03;;;;;;;6.94;66.00;97663.41;5015737;28;20048;-62
2021/03/31 01:02:03;;;;;;;9.25;4.30;;;;;;;6.88;66.07;97658.13;5021592;28;20497;-63
2021/03/31 01:04:28;;;;;;;10.85;4.82;;;;;;;6.83;66.20;97658.25;5017988;28;20033;-61
2021/03/31 01:06:54;;;;;;;8.98;4.75;;;;;;;6.78;65.91;97658.41;5021276;28;20049;-61
2021/03/31 01:09:19;;;;;;;11.85;4.75;;;;;;;6.67;66.02;97651.69;5016311;28;20119;-61
2021/03/31 01:12:22;;;;;;;10.93;4.78;;;;;;;6.45;67.23;97652.59;5018592;28;20041;-60
2021/03/31 01:15:10;;;;;;;10.18;4.90;;;;;;;6.42;67.61;97650.50;5019460;28;20033;-62
2021/03/31 01:17:42;;;;;;;11.30;4.90;;;;;;;6.18;68.24;97657.16;5019692;28;20046;-62
2021/03/31 01:20:29;;;;;;;12.95;4.80;;;;;;;5.93;67.44;97647.72;5017101;28;20049;-62
2021/03/31 01:23:27;;;;;;;11.90;4.88;;;;;;;5.78;68.01;97648.94;5001963;28;20034;-62
2021/03/31 01:26:04;;;;;;;8.68;4.78;;;;;;;5.67;69.01;97650.31;5011960;28;20421;-63
2021/03/31 01:29:00;;;;;;;9.98;4.80;;;;;;;5.66;68.99;97641.34;5020186;28;20586;-61
2021/03/31 01:31:32;;;;;;;10.85;5.15;;;;;;;5.66;68.07;97644.06;4995411;28;20545;-62
2021/03/31 01:34:22;;;;;;;11.85;5.63;;;;;;;5.67;70.19;97647.59;4998354;28;20141;-61
2021/03/31 01:36:51;;;;;;;15.20;5.28;;;;;;;5.79;70.20;97652.47;4999127;28;20145;-62
2021/03/31 01:39:18;;;;;;;15.82;4.95;;;;;;;5.59;71.20;97648.34;4996175;28;20038;-62
2021/03/31 01:41:45;;;;;;;11.52;5.22;;;;;;;5.25;72.73;97647.78;5009720;28;20048;-61
2021/03/31 01:44:14;;;;;;;10.77;5.13;;;;;;;5.18;72.74;97644.69;5016430;28;20037;-62
2021/03/31 01:46:42;;;;;;;10.38;4.95;;;;;;;5.25;73.31;97636.13;5024345;28;20057;-63
2021/03/31 01:49:08;;;;;;;10.25;5.00;;;;;;;5.28;71.19;97643.69;5019126;28;20465;-60
2021/03/31 01:51:36;;;;;;;9.10;4.82;;;;;;;5.32;72.32;97640.00;5024495;28;20065;-60
2021/03/31 01:54:03;;;;;;;11.20;5.22;;;;;;;5.36;72.11;97649.16;5020809;28;20040;-61
2021/03/31 01:56:30;;;;;;;11.82;5.07;;;;;;;5.06;73.57;97645.28;5022621;28;20095;-62
2021/03/31 01:58:56;;;;;;;8.55;4.78;;;;;;;5.14;73.38;97638.28;5025622;28;20037;-61
2021/03/31 02:01:23;;;;;;;16.35;5.97;;;;;;;4.98;73.70;97644.06;5020152;28;20964;-62
2021/03/31 02:03:53;;;;;;;10.82;6.32;;;;;;;4.67;75.04;97646.69;5025381;28;20136;-61
2021/03/31 02:06:19;;;;;;;10.82;4.97;;;;;;;4.70;75.39;97643.38;5010464;28;20446;-61
2021/03/31 02:08:46;;;;;;;9.93;4.65;;;;;;;4.91;74.77;97640.19;5018871;28;20034;-60
2021/03/31 02:11:13;;;;;;;8.80;5.20;;;;;;;4.97;74.48;97639.75;5013488;28;20116;-58
2021/03/31 02:13:39;;;;;;;12.18;5.07;;;;;;;4.91;73.22;97643.69;5004519;28;20552;-61
2021/03/31 02:16:06;;;;;;;15.40;5.00;;;;;;;4.94;73.96;97637.66;4999130;28;20041;-62
2021/03/31 02:18:33;;;;;;;10.93;5.25;;;;;;;5.00;74.38;97635.63;5004067;28;20045;-60
2021/03/31 02:21:00;;;;;;;12.63;4.80;;;;;;;5.06;73.54;97633.59;5014424;28;20032;-60
2021/03/31 02:23:28;;;;;;;11.80;5.45;;;;;;;5.07;74.51;97637.91;5035113;28;20035;-62
2021/03/31 02:25:54;;;;;;;8.15;4.10;;;;;;;5.19;74.02;97643.59;5044046;28;20045;-61
2021/03/31 02:28:20;;;;;;;11.32;5.03;;;;;;;5.23;73.06;97635.66;5038527;28;20758;-60
2021/03/31 02:30:46;;;;;;;9.38;4.80;;;;;;;5.38;72.34;97642.63;5042266;28;20059;-59
2021/03/31 02:33:12;;;;;;;12.48;4.95;;;;;;;5.24;72.20;97643.50;5039450;28;20037;-59
2021/03/31 02:35:40;;;;;;;15.10;5.43;;;;;;;5.20;72.85;97638.97;5044362;28;20036;-61
2021/03/31 02:38:08;;;;;;;11.52;4.90;;;;;;;5.12;72.56;97635.09;5014342;28;20041;-61
2021/03/31 02:40:36;;;;;;;15.95;5.40;;;;;;;5.05;72.54;97640.94;5022172;28;20041;-61
2021/03/31 02:43:05;;;;;;;7.90;4.68;;;;;;;5.00;72.63;97640.25;5022423;28;20041;-60
2021/03/31 02:45:31;;;;;;;13.25;4.47;;;;;;;4.99;73.59;97644.91;5022717;28;20505;-60
2021/03/31 02:47:59;;;;;;;7.70;4.68;;;;;;;5.12;72.69;97638.59;5025507;28;20061;-62
2021/03/31 02:50:28;;;;;;;8.13;4.80;;;;;;;5.21;72.36;97641.38;5016218;28;20516;-61
2021/03/31 02:52:53;;;;;;;11.30;5.60;;;;;;;5.10;72.10;97635.38;5005378;28;20038;-63
2021/03/31 02:55:22;;;;;;;11.18;5.78;;;;;;;4.92;71.75;97633.66;4997352;28;20038;-62
2021/03/31 02:57:48;;;;;;;10.27;5.50;;;;;;;4.57;74.07;97638.75;5023544;28;20136;-61
2021/03/31 03:00:14;;;;;;;13.75;6.93;;;;;;;4.02;77.11;97639.59;5017945;28;20128;-62
2021/03/31 03:02:42;;;;;;;11.88;5.47;;;;;;;3.94;77.67;97632.16;5017546;28;20610;-62
2021/03/31 03:05:10;;;;;;;11.23;5.28;;;;;;;3.85;77.82;97633.97;5018142;28;20037;-61
2021/03/31 03:07:36;;;;;;;10.63;5.40;;;;;;;3.75;78.47;97635.75;5015523;28;20053;-62
2021/03/31 03:10:05;;;;;;;11.27;5.25;;;;;;;3.71;77.18;97629.34;5021622;28;20803;-63
2021/03/31 03:12:32;;;;;;;11.50;5.32;;;;;;;3.85;77.76;97626.63;5019021;28;20049;-63
2021/03/31 03:14:58;;;;;;;13.18;5.57;;;;;;;3.90;76.88;97628.44;5021660;28;20037;-60
2021/03/31 03:17:24;;;;;;;13.00;5.60;;;;;;;4.08;77.67;97630.25;5016092;28;20060;-61
2021/03/31 03:19:50;;;;;;;12.52;5.45;;;;;;;4.11;76.98;97628.88;5022834;28;20132;-61
2021/03/31 03:22:18;;;;;;;16.08;5.25;;;;;;;4.12;77.22;97631.25;5014037;28;20037;-60
2021/03/31 03:24:46;;;;;;;15.27;5.78;;;;;;;4.05;76.70;97630.84;5021598;28;20041;-61
2021/03/31 03:27:15;;;;;;;13.05;5.90;;;;;;;4.14;76.85;97623.66;5010443;28;20045;-61
2021/03/31 03:29:49;;;;;;;8.75;4.80;;;;;;;4.22;76.72;97632.97;5020252;28;20041;-61
2021/03/31 03:32:15;;;;;;;11.05;4.90;;;;;;;4.29;76.99;97619.81;5016173;28;20367;-60
2021/03/31 03:34:42;;;;;;;11.70;5.20;;;;;;;4.48;75.49;97624.28;5022106;28;20087;-59
2021/03/31 03:37:08;;;;;;;11.88;5.00;;;;;;;4.51;75.35;97619.06;5017233;28;20041;-60
2021/03/31 03:39:33;;;;;;;14.15;6.20;;;;;;;4.47;74.91;97622.72;5021001;28;20398;-60
2021/03/31 03:41:59;;;;;;;12.88;5.47;;;;;;;4.43;75.03;97621.69;5018089;28;20041;-61
2021/03/31 03:44:25;;;;;;;10.30;5.10;;;;;;;4.37;75.13;97618.28;5012223;28;20041;-61
2021/03/31 03:46:54;;;;;;;12.55;4.93;;;;;;;4.30;75.13;97618.69;5021401;28;20049;-59
2021/03/31 03:49:20;;;;;;;12.65;4.90;;;;;;;4.25;75.54;97618.81;5017470;28;20557;-58
2021/03/31 03:51:46;;;;;;;8.98;4.78;;;;;;;4.29;75.70;97613.59;5021231;28;20140;-61
2021/03/31 03:54:12;;;;;;;10.43;5.15;;;;;;;4.35;74.75;97618.59;5016644;28;20072;-60
2021/03/31 03:56:38;;;;;;;12.95;6.40;;;;;;;4.28;75.13;97617.41;5014733;28;20074;-60
2021/03/31 03:59:20;;;;;;;10.02;5.20;;;;;;;4.15;75.24;97627.16;5007480;28;20037;-63
2021/03/31 04:01:47;;;;;;;10.25;5.18;;;;;;;4.18;75.40;97621.13;5017387;28;20042;-61
2021/03/31 04:04:13;;;;;;;13.02;5.90;;;;;;;4.19;75.48;97628.13;5016565;28;20128;-62
2021/03/31 04:06:39;;;;;;;12.13;5.68;;;;;;;4.21;75.50;97628.63;5019976;28;20053;-62
2021/03/31 04:09:05;;;;;;;11.70;5.15;;;;;;;4.17;75.71;97633.88;5015145;28;20099;-62
2021/03/31 04:11:31;;;;;;;10.90;4.90;;;;;;;4.14;76.27;97630.94;5021810;28;20045;-62
2021/03/31 04:13:59;;;;;;;12.13;5.28;;;;;;;3.95;75.18;97631.84;5021255;28;20047;-62
2021/03/31 04:16:25;;;;;;;11.98;5.40;;;;;;;3.94;76.67;97632.16;5016598;28;20637;-62
2021/03/31 04:18:52;;;;;;;9.27;5.20;;;;;;;4.08;76.21;97637.59;5015982;28;20421;-62
2021/03/31 04:21:18;;;;;;;9.45;5.03;;;;;;;3.98;75.29;97647.53;5017172;28;20044;-60
2021/03/31 04:23:44;;;;;;;11.95;5.03;;;;;;;3.74;73.71;97642.28;5006195;28;20386;-61
2021/03/31 04:26:09;;;;;;;9.23;4.97;;;;;;;3.43;76.21;97637.38;5005214;28;20049;-62
2021/03/31 04:28:36;;;;;;;8.68;4.82;;;;;;;3.38;76.48;97642.09;5003128;28;20160;-61
2021/03/31 04:31:05;;;;;;;14.00;7.78;;;;;;;3.17;75.83;97637.03;5002925;28;20064;-61
2021/03/31 04:33:32;;;;;;;9.48;5.20;;;;;;;2.95;77.52;97639.53;5014872;28;20045;-60
2021/03/31 04:35:57;;;;;;;9.70;5.40;;;;;;;3.01;79.02;97641.88;5021105;28;20506;-60
2021/03/31 04:38:23;;;;;;;9.00;4.90;;;;;;;3.24;78.88;97637.44;5015940;28;20052;-59
2021/03/31 04:40:53;;;;;;;9.88;5.25;;;;;;;3.45;78.12;97637.09;5021274;28;20125;-60
2021/03/31 04:43:19;;;;;;;;;;;;;;;3.44;77.73;97638.22;5016942;28;20076;-60
2021/03/31 04:45:44;;;;;;;13.23;5.15;;;;;;;2.78;80.06;97642.75;5018488;28;19920;-61
2021/03/31 04:48:10;;;;;;;13.73;6.57;;;;;;;2.49;82.72;97649.91;5009571;28;20409;-61
2021/03/31 04:50:35;;;;;;;15.00;6.45;;;;;;;2.21;84.53;97643.47;5024573;28;20046;-62
2021/03/31 04:53:01;;;;;;;14.90;6.88;;;;;;;2.08;84.73;97644.19;5036093;28;20037;-63
2021/03/31 04:55:26;;;;;;;15.80;8.02;;;;;;;2.10;86.18;97652.81;5011353;28;20063;-63
2021/03/31 04:57:52;;;;;;;14.73;7.05;;;;;;;2.16;86.18;97650.84;5021506;28;20037;-62
2021/03/31 05:00:17;;;;;;;16.45;6.38;;;;;;;2.24;85.85;97647.53;5013710;28;20096;-61
2021/03/31 05:02:43;;;;;;;13.00;6.32;;;;;;;2.38;85.38;97645.72;5007365;28;20372;-60
2021/03/31 05:05:09;;;;;;;15.95;6.45;;;;;;;2.51;84.75;97651.50;4999064;28;20038;-61
2021/03/31 05:07:34;;;;;;;17.80;6.35;;;;;;;2.75;83.94;97649.53;5002907;28;20125;-60
2021/03/31 05:09:59;;;;;;;14.65;6.60;;;;;;;3.00;82.38;97648.38;5004716;28;20045;-61
2021/03/31 05:12:25;;;;;;;11.50;6.07;;;;;;;3.08;81.14;97655.03;5008027;28;20108;-60
2021/03/31 05:14:51;;;;;;;12.80;6.20;;;;;;;3.14;80.80;97653.84;5020113;28;20483;-60
2021/03/31 05:17:16;;;;;;;15.25;6.13;;;;;;;3.28;80.96;97655.78;5005978;28;20650;-62
2021/03/31 05:19:41;;;;;;;11.30;5.55;;;;;;;3.41;79.65;97657.75;5011300;28;20139;-59
2021/03/31 05:22:07;;;;;;;11.07;5.47;;;;;;;3.70;80.64;97649.41;5002787;28;20378;-60
2021/03/31 05:24:32;;;;;;;13.27;6.32;;;;;;;3.73;77.89;97650.72;5006916;28;20072;-59
2021/03/31 05:26:58;;;;;;;14.10;6.32;;;;;;;4.18;77.85;97656.38;5018380;28;20636;-61
2021/03/31 05:29:23;;;;;;;13.75;6.07;;;;;;;5.22;75.06;97651.16;5015540;28;20236;-59
2021/03/31 05:31:49;;;;;;;82.53;29.08;;;;;;;6.04;68.28;97653.72;5020781;28;20040;-61
2021/03/31 05:34:14;;;;;;;33.30;13.80;;;;;;;6.18;68.04;97657.16;5012256;28;20071;-61
2021/03/31 05:36:39;;;;;;;12.48;5.70;;;;;;;7.34;64.40;97650.41;5008153;28;20065;-60
2021/03/31 05:39:05;;;;;;;10.15;4.88;;;;;;;8.38;59.57;97654.78;5008969;28;20137;-62
2021/03/31 05:41:31;;;;;;;8.70;4.55;;;;;;;9.41;56.88;97645.41;5019298;28;20050;-61
2021/03/31 05:43:56;;;;;;;9.38;4.50;;;;;;;10.19;55.33;97643.81;5020177;28;20405;-62
2021/03/31 05:46:22;;;;;;;9.95;4.80;;;;;;;10.53;52.94;97652.72;5014605;28;20212;-63
2021/03/31 05:48:48;;;;;;;14.73;5.65;;;;;;;9.92;54.23;97648.78;5013430;28;20101;-63
2021/03/31 05:51:13;;;;;;;10.27;4.63;;;;;;;9.21;56.46;97654.44;5006844;28;20045;-62
2021/03/31 05:53:39;;;;;;;13.35;5.60;;;;;;;9.16;57.57;97658.16;5019860;28;20064;-62
2021/03/31 05:56:08;;;;;;;12.05;4.80;;;;;;;10.90;52.00;97649.97;5014968;28;20515;-62
2021/03/31 05:58:35;;;;;;;14.63;4.97;;;;;;;12.16;47.62;97656.22;5020184;28;20081;-62
2021/03/31 06:01:03;;;;;;;11.10;5.65;;;;;;;12.98;45.91;97640.84;5021822;28;20049;-62
2021/03/31 06:03:31;;;;;;;14.23;5.65;;;;;;;13.89;43.82;97645.06;5015794;28;20043;-63
2021/03/31 06:05:59;;;;;;;21.20;5.70;;;;;;;13.13;44.73;97650.22;5020075;28;20521;-63
2021/03/31 06:08:24;;;;;;;10.32;5.55;;;;;;;11.63;48.58;97642.63;5015752;28;20498;-63
2021/03/31 06:10:57;;;;;;;13.43;5.30;;;;;;;12.15;47.38;97643.63;5022322;28;20379;-62
2021/03/31 06:13:23;;;;;;;13.73;6.30;;;;;;;12.73;46.38;97629.28;5016424;28;20608;-62
2021/03/31 06:15:49;;;;;;;18.42;6.32;;;;;;;11.24;51.79;97645.88;5017939;28;20128;-62
2021/03/31 06:18:18;;;;;;;18.25;8.25;;;;;;;11.58;50.48;97642.91;5010068;28;20052;-61
2021/03/31 06:20:44;;;;;;;14.35;6.70;;;;;;;11.28;50.98;97637.75;5021077;28;20037;-61
2021/03/31 06:23:24;;;;;;;12.55;5.47;;;;;;;12.92;47.43;97631.28;5016715;28;20034;-62
2021/03/31 06:25:59;;;;;;;10.05;5.05;;;;;;;14.22;44.22;97620.84;5019895;28;20104;-62
2021/03/31 06:28:29;;;;;;;14.63;6.43;;;;;;;14.31;43.49;97627.72;5013454;28;20068;-62
2021/03/31 06:31:13;;;;;;;13.90;6.30;;;;;;;14.06;44.04;97627.28;5020998;28;20068;-62
2021/03/31 06:33:41;;;;;;;9.38;6.00;;;;;;;10.94;53.74;97644.59;5012223;28;20077;-63
2021/03/31 06:36:08;;;;;;;17.27;6.47;;;;;;;10.35;54.10;97643.94;5012539;28;20038;-62
2021/03/31 06:38:45;;;;;;;15.15;6.15;;;;;;;9.53;58.01;97641.94;5020861;28;20099;-62
2021/03/31 06:41:11;;;;;;;12.13;5.53;;;;;;;9.57;57.77;97643.66;5010708;28;20042;-62
2021/03/31 06:43:46;;;;;;;11.38;5.70;;;;;;;11.74;52.18;97643.72;5018463;28;20052;-62
2021/03/31 06:46:22;;;;;;;12.30;5.03;;;;;;;11.88;50.97;97642.50;5008604;28;20064;-62
2021/03/31 06:48:49;;;;;;;12.75;5.32;;;;;;;12.74;49.18;97639.94;5038039;23;20057;-64
2021/03/31 06:51:32;;;;;;;10.45;5.05;;;;;;;14.11;46.08;97640.72;5006555;28;20057;-64
2021/03/31 06:54:21;;;;;;;13.07;5.82;;;;;;;15.07;43.38;97643.44;5022675;28;20049;-64
2021/03/31 06:56:55;;;;;;;10.15;5.57;;;;;;;16.01;40.85;97642.59;5022141;28;20055;-64
2021/03/31 06:59:28;;;;;;;14.80;5.80;;;;;;;16.02;39.68;97640.63;5019048;28;20452;-63
2021/03/31 07:01:54;;;;;;;16.50;5.95;;;;;;;17.84;37.21;97628.31;5021102;28;20034;-64
2021/03/31 07:04:20;;;;;;;12.05;5.47;;;;;;;17.67;36.34;97632.63;5015461;28;20054;-64
2021/03/31 07:07:03;;;;;;;14.07;5.38;;;;;;;17.48;37.10;97626.22;5025190;28;20052;-64
2021/03/31 07:09:30;;;;;;;12.07;5.15;;;;;;;17.99;36.02;97627.22;5022074;28;20045;-64
2021/03/31 07:11:55;;;;;;;14.48;6.03;;;;;;;18.34;35.60;97628.44;5029478;28;20038;-64
2021/03/31 07:14:21;;;;;;;10.77;5.22;;;;;;;18.74;34.59;97629.19;5028742;28;20203;-63
2021/03/31 07:16:48;;;;;;;12.38;5.78;;;;;;;18.65;35.15;97626.81;5038360;28;20072;-64
2021/03/31 07:19:14;;;;;;;36.97;19.52;;;;;;;18.90;34.80;97620.47;5016750;28;20044;-66
2021/03/31 07:21:40;;;;;;;17.52;9.15;;;;;;;18.38;35.29;97628.44;5018902;28;20038;-65
2021/03/31 07:24:06;;;;;;;14.73;7.13;;;;;;;19.08;33.98;97626.00;5014778;28;20087;-63
2021/03/31 07:26:32;;;;;;;16.05;7.90;;;;;;;18.25;35.02;97617.72;5011073;28;20052;-64
2021/03/31 07:28:58;;;;;;;29.08;14.10;;;;;;;18.42;35.16;97624.47;5021616;28;20045;-63
2021/03/31 07:31:28;;;;;;;18.50;6.47;;;;;;;21.00;30.12;97613.28;5002354;28;20056;-64
2021/03/31 07:34:12;;;;;;;13.63;5.68;;;;;;;19.45;32.06;97613.59;5018519;28;20037;-64
2021/03/31 07:36:42;;;;;;;22.98;6.32;;;;;;;20.54;30.23;97617.28;5020064;28;20049;-64
2021/03/31 07:39:08;;;;;;;16.13;7.35;;;;;;;17.87;34.57;97614.50;5016731;28;20142;-64
2021/03/31 07:41:37;;;;;;;17.48;7.95;;;;;;;15.79;39.25;97616.72;5020688;28;20462;-64
2021/03/31 07:44:05;;;;;;;21.83;6.57;;;;;;;14.05;44.22;97622.94;5011623;28;20041;-62
2021/03/31 07:46:34;;;;;;;12.38;5.70;;;;;;;15.52;41.36;97620.72;5008157;28;20073;-62
2021/03/31 07:49:00;;;;;;;16.27;6.32;;;;;;;16.63;39.64;97617.03;5013492;28;20514;-64
2021/03/31 07:51:28;;;;;;;15.57;6.03;;;;;;;17.31;37.40;97618.66;5003411;28;20058;-63
2021/03/31 07:54:00;;;;;;;15.57;5.82;;;;;;;17.64;36.83;97617.56;5007188;28;20042;-62
2021/03/31 07:56:34;;;;;;;12.30;6.40;;;;;;;17.49;37.23;97619.50;4999989;28;20136;-62
2021/03/31 07:59:03;;;;;;;15.50;5.28;;;;;;;19.64;34.04;97618.66;5010581;28;20049;-62
2021/03/31 08:01:34;;;;;;;12.80;6.07;;;;;;;18.42;35.72;97618.13;5017410;28;20050;-65
2021/03/31 08:04:02;;;;;;;14.80;7.32;;;;;;;15.98;41.20;97620.47;5025292;28;20091;-63
2021/03/31 08:06:31;;;;;;;12.48;6.25;;;;;;;17.25;39.14;97618.25;5034003;28;20034;-63
2021/03/31 08:09:04;;;;;;;13.63;6.22;;;;;;;18.34;36.72;97609.00;5024213;28;20127;-63
2021/03/31 08:11:38;;;;;;;17.67;6.45;;;;;;;15.96;41.51;97618.06;5023719;28;20045;-64
2021/03/31 08:14:08;;;;;;;14.13;5.82;;;;;;;19.14;35.00;97602.19;5019202;28;20043;-64
2021/03/31 08:16:55;;;;;;;13.45;5.68;;;;;;;20.09;33.14;97608.88;5019204;28;20057;-65
2021/03/31 08:19:25;;;;;;;16.17;6.50;;;;;;;18.44;36.16;97608.22;5006624;28;20077;-65
2021/03/31 08:21:55;;;;;;;15.18;7.18;;;;;;;19.48;34.64;97612.75;5017114;28;20041;-63
2021/03/31 08:24:44;;;;;;;10.30;4.68;;;;;;;21.72;31.85;97604.88;5008420;28;20042;-63
2021/03/31 08:27:12;;;;;;;21.03;5.53;;;;;;;21.92;30.18;97605.00;4997892;28;20038;-63
2021/03/31 08:29:37;;;;;;;14.35;6.32;;;;;;;22.02;29.39;97599.69;5003047;28;20096;-63
2021/03/31 08:32:07;;;;;;;12.75;6.32;;;;;;;22.62;28.80;97608.34;5015549;28;20034;-63
2021/03/31 08:34:33;;;;;;;;;;;;;;;22.40;29.15;97605.09;5020472;28;20116;-67
2021/03/31 08:37:01;;;;;;;13.65;6.13;;;;;;;22.57;29.38;97604.03;5022542;28;19999;-62
2021/03/31 08:39:26;;;;;;;15.93;6.18;;;;;;;22.34;29.53;97599.22;5016262;28;20057;-63
2021/03/31 08:41:55;;;;;;;11.55;6.43;;;;;;;21.72;31.58;97602.09;5021037;28;20555;-63
2021/03/31 08:44:23;;;;;;;9.93;5.90;;;;;;;22.83;30.03;97598.78;5014186;28;20076;-63
2021/03/31 08:46:51;;;;;;;10.82;5.75;;;;;;;23.08;29.92;97592.75;5020034;28;20618;-63
2021/03/31 08:49:27;;;;;;;16.58;7.03;;;;;;;22.06;31.14;97592.84;5007009;28;20042;-63
2021/03/31 08:52:07;;;;;;;18.05;8.27;;;;;;;23.21;30.06;97596.50;5021792;28;20080;-63
2021/03/31 08:54:48;;;;;;;20.15;9.68;;;;;;;22.55;30.62;97600.09;5021907;28;20034;-62
2021/03/31 08:57:22;;;;;;;13.77;6.40;;;;;;;21.50;31.89;97601.59;5017021;28;20038;-63
2021/03/31 08:59:50;;;;;;;18.15;7.63;;;;;;;21.55;32.43;97594.75;5017800;28;20045;-63
2021/03/31 09:02:23;;;;;;;16.63;6.72;;;;;;;21.90;31.79;97598.28;5017992;28;20052;-65
2021/03/31 09:04:52;;;;;;;16.00;7.70;;;;;;;21.15;32.71;97595.22;5021821;28;20532;-63
2021/03/31 09:07:18;;;;;;;19.73;7.00;;;;;;;20.52;32.75;97592.63;5004493;28;20056;-63
2021/03/31 09:09:46;;;;;;;17.27;7.00;;;;;;;20.20;33.04;97590.94;5016686;28;20053;-63
2021/03/31 09:12:15;;;;;;;11.02;6.47;;;;;;;20.27;33.65;97583.72;5017053;28;20037;-63
2021/03/31 09:14:45;;;;;;;12.85;7.43;;;;;;;20.19;33.66;97585.78;5021707;28;20046;-63
2021/03/31 09:17:16;;;;;;;11.82;6.80;;;;;;;21.24;32.29;97575.22;5016082;28;20034;-62
2021/03/31 09:19:43;;;;;;;14.25;7.10;;;;;;;21.06;32.54;97567.06;5020439;28;20041;-64
2021/03/31 09:22:15;;;;;;;18.88;7.80;;;;;;;21.43;31.30;97570.19;5013842;28;20530;-62
2021/03/31 09:24:42;;;;;;;17.20;8.40;;;;;;;21.95;30.70;97562.34;5022149;28;20046;-62
2021/03/31 09:27:13;;;;;;;30.85;9.13;;;;;;;22.32;29.67;97555.00;5022537;28;20052;-64
2021/03/31 09:29:43;;;;;;;15.70;7.47;;;;;;;20.87;31.96;97562.91;5028024;28;20506;-64
2021/03/31 09:32:12;;;;;;;14.65;7.53;;;;;;;21.91;30.64;97553.25;4997523;28;20041;-64
2021/03/31 09:34:38;;;;;;;12.40;7.20;;;;;;;21.30;31.21;97556.03;5012984;28;20049;-63
2021/03/31 09:37:15;;;;;;;19.17;7.85;;;;;;;22.20;30.20;97549.19;5013733;28;20068;-62
2021/03/31 09:39:46;;;;;;;16.55;8.57;;;;;;;23.05;28.61;97534.97;5022422;28;20041;-63
2021/03/31 09:42:23;;;;;;;15.52;7.47;;;;;;;23.08;28.68;97537.69;5016650;28;20045;-64
2021/03/31 09:44:50;;;;;;;15.07;8.15;;;;;;;23.36;27.81;97537.53;5016230;28;20038;-63
2021/03/31 09:47:18;;;;;;;16.42;7.97;;;;;;;23.31;27.91;97532.44;5016645;28;20060;-64
2021/03/31 09:49:44;;;;;;;22.55;9.73;;;;;;;23.57;27.99;97528.66;5019373;28;20046;-64
2021/03/31 09:52:11;;;;;;;18.73;9.23;;;;;;;23.60;27.68;97525.00;5015110;28;20041;-61
2021/03/31 09:54:37;;;;;;;19.90;9.57;;;;;;;23.39;27.60;97525.47;5021151;28;20037;-63
2021/03/31 09:57:03;;;;;;;15.70;7.63;;;;;;;24.05;27.67;97520.78;5019864;28;20458;-64
2021/03/31 09:59:30;;;;;;;15.05;7.53;;;;;;;23.29;28.45;97519.69;5020318;28;20183;-62
2021/03/31 10:01:56;;;;;;;19.38;8.63;;;;;;;23.96;27.40;97520.63;5019019;28;20131;-64
2021/03/31 10:04:21;;;;;;;16.88;7.45;;;;;;;22.99;29.51;97503.13;5017250;28;20685;-62
2021/03/31 10:07:06;;;;;;;16.98;8.40;;;;;;;22.98;29.29;97507.16;5019457;28;20748;-63
2021/03/31 10:09:46;;;;;;;20.13;8.35;;;;;;;23.43;28.37;97513.00;5016293;28;20748;-63
2021/03/31 10:12:20;;;;;;;25.10;7.88;;;;;;;24.00;27.96;97512.91;5011962;28;20041;-62
2021/03/31 10:14:48;;;;;;;19.38;8.50;;;;;;;23.51;28.42;97508.03;5024292;28;20616;-62
2021/03/31 10:17:18;;;;;;;19.55;8.55;;;;;;;23.65;27.98;97502.09;5016044;28;20041;-62
2021/03/31 10:19:43;;;;;;;17.48;8.05;;;;;;;23.22;28.68;97503.06;5019883;28;20046;-63
2021/03/31 10:22:09;;;;;;;19.65;9.13;;;;;;;23.29;28.98;97499.34;5019835;28;20048;-62
2021/03/31 10:24:43;;;;;;;17.30;9.18;;;;;;;23.44;29.33;97497.00;5023830;28;20041;-62
2021/03/31 10:27:12;;;;;;;15.15;7.75;;;;;;;22.97;30.30;97497.19;5018425;28;20033;-63
2021/03/31 10:29:52;;;;;;;18.88;7.80;;;;;;;22.53;30.46;97497.22;5024168;28;20136;-63
2021/03/31 10:32:23;;;;;;;15.95;7.88;;;;;;;23.04;29.83;97495.06;5016691;28;20127;-63
2021/03/31 10:34:53;;;;;;;17.33;8.88;;;;;;;22.33;30.92;97491.63;5023224;28;20068;-62
2021/03/31 10:56:21;;;;;;;31.92;9.77;;;;;;;22.73;31.89;97468.53;4999251;28;20076;-63
2021/03/31 10:58:47;;;;;;;14.25;8.40;;;;;;;22.67;31.58;97466.25;5013754;28;20073;-62
2021/03/31 11:01:13;;;;;;;21.15;9.88;;;;;;;22.76;31.12;97456.50;5019444;28;20096;-62
2021/03/31 11:03:38;;;;;;;21.45;9.95;;;;;;;22.17;31.66;97464.34;5025186;28;20045;-62
2021/03/31 11:06:05;;;;;;;17.88;8.90;;;;;;;21.85;32.95;97457.31;5013447;28;20604;-61
2021/03/31 11:08:30;;;;;;;20.20;9.27;;;;;;;21.73;33.65;97455.94;5023397;28;20047;-65
2021/03/31 11:10:55;;;;;;;22.20;9.85;;;;;;;21.31;33.53;97454.53;5021611;28;20042;-64
2021/03/31 11:13:21;;;;;;;24.48;10.07;;;;;;;20.95;35.03;97460.59;5019166;28;20046;-64
2021/03/31 11:15:46;;;;;;;25.13;9.93;;;;;;;20.74;35.33;97464.41;5024001;28;20133;-64
2021/03/31 11:18:28;;;;;;;18.25;9.27;;;;;;;20.84;35.12;97451.59;5021486;28;20284;-65
2021/03/31 11:21:38;;;;;;;25.13;9.88;;;;;;;20.88;34.60;97443.97;5034759;28;20041;-64
2021/03/31 11:26:38;;;;;;;27.95;9.70;;;;;;;20.71;35.14;97446.56;5024248;28;20081;-63
2021/03/31 11:29:03;;;;;;;25.63;10.30;;;;;;;20.60;35.09;97445.88;5023432;28;20064;-63
2021/03/31 11:31:29;;;;;;;30.13;12.63;;;;;;;20.44;35.48;97435.31;5023370;28;20081;-63
2021/03/31 11:33:54;;;;;;;18.42;9.63;;;;;;;20.52;35.87;97436.81;5020863;28;20073;-63
2021/03/31 11:36:20;;;;;;;21.15;9.65;;;;;;;20.41;35.30;97438.94;5018187;28;20516;-64
2021/03/31 11:38:45;;;;;;;20.52;10.00;;;;;;;20.30;35.55;97433.47;5023001;28;20107;-63
2021/03/31 11:41:11;;;;;;;19.83;10.23;;;;;;;20.70;34.94;97433.84;5025676;28;20112;-63
2021/03/31 11:43:37;;;;;;;22.33;9.68;;;;;;;20.49;35.22;97429.31;5034212;28;20045;-64
2021/03/31 11:46:03;;;;;;;22.23;9.73;;;;;;;20.49;35.28;97420.97;5022811;28;20049;-63
2021/03/31 11:48:28;;;;;;;22.98;10.60;;;;;;;20.54;34.60;97416.91;5015072;28;20049;-62
2021/03/31 11:50:54;;;;;;;17.90;9.90;;;;;;;20.76;35.07;97418.28;5020133;28;20114;-63
2021/03/31 11:53:19;;;;;;;18.75;9.70;;;;;;;20.78;34.70;97410.28;5016466;28;20037;-63
2021/03/31 11:55:45;;;;;;;18.80;9.23;;;;;;;20.89;34.63;97414.94;5023418;28;20042;-63
2021/03/31 11:58:10;;;;;;;23.67;11.07;;;;;;;20.60;35.01;97404.91;5017699;28;20037;-63
2021/03/31 12:00:36;;;;;;;22.35;10.02;;;;;;;20.72;34.42;97405.59;5018391;28;20055;-63